createdAt,value
2022-09-05T00:01:53.406Z,18.43
2022-09-05T00:04:37.962Z,18.52
2022-09-05T00:07:31.225Z,18.42
2022-09-05T00:10:22.426Z,18.39
2022-09-05T00:13:07.069Z,18.39
2022-09-05T00:15:37.409Z,18.31
2022-09-05T00:24:17.136Z,18.31
2022-09-05T00:24:22.578Z,18.27
2022-09-05T00:24:42.148Z,18.27
2022-09-05T00:27:24.043Z,18.23
2022-09-05T00:31:06.226Z,18.18
2022-09-05T00:33:26.088Z,18.17
2022-09-05T00:36:16.033Z,18.12
2022-09-05T00:38:56.942Z,18.10
2022-09-05T00:41:24.158Z,18.09
2022-09-05T00:43:52.425Z,18.02
2022-09-05T00:46:25.358Z,17.99
2022-09-05T00:49:23.333Z,17.98
2022-09-05T00:52:10.266Z,17.95
2022-09-05T00:55:02.288Z,17.92
2022-09-05T00:57:46.827Z,17.91
2022-09-05T01:00:19.962Z,17.83
2022-09-05T01:03:02.868Z,17.79
2022-09-05T01:05:59.726Z,17.73
2022-09-05T01:08:54.068Z,17.74
2022-09-05T01:11:32.489Z,17.74
2022-09-05T01:14:21.490Z,17.77
2022-09-05T01:16:54.027Z,17.74
2022-09-05T01:20:18.588Z,17.73
2022-09-05T01:23:24.598Z,17.66
2022-09-05T01:26:24.938Z,17.63
2022-09-05T01:29:17.128Z,17.64
2022-09-05T01:32:11.779Z,17.68
2022-09-05T01:34:50.365Z,17.62
2022-09-05T01:37:33.062Z,17.51
2022-09-05T01:40:22.456Z,17.53
2022-09-05T01:43:20.491Z,17.61
2022-09-05T01:46:11.669Z,17.53
2022-09-05T01:48:53.403Z,17.46
2022-09-05T01:51:41.443Z,17.47
2022-09-05T01:54:24.941Z,17.41
2022-09-05T01:57:12.841Z,17.39
2022-09-05T01:59:54.726Z,17.50
2022-09-05T02:02:59.052Z,17.35
2022-09-05T02:05:53.369Z,17.35
2022-09-05T02:08:47.387Z,17.31
2022-09-05T02:11:14.838Z,17.38
2022-09-05T02:13:52.451Z,17.27
2022-09-05T02:16:44.413Z,17.39
2022-09-05T02:19:22.382Z,17.28
2022-09-05T02:22:18.045Z,17.19
2022-09-05T02:24:59.833Z,17.22
2022-09-05T02:28:04.209Z,17.22
2022-09-05T02:30:55.787Z,17.10
2022-09-05T02:33:46.897Z,17.13
2022-09-05T02:36:25.375Z,17.13
2022-09-05T02:45:01.440Z,17.04
2022-09-05T02:45:13.054Z,17.09
2022-09-05T02:45:19.431Z,17.06
2022-09-05T02:48:09.674Z,17.20
2022-09-05T02:55:56.095Z,17.13
2022-09-05T02:57:33.864Z,17.09
2022-09-05T02:58:08.075Z,17.09
2022-09-05T03:00:21.570Z,17.09
2022-09-05T03:03:16.925Z,16.98
2022-09-05T03:06:12.373Z,17.14
2022-09-05T03:09:08.080Z,17.00
2022-09-05T03:12:27.177Z,16.93
2022-09-05T03:15:22.489Z,16.89
2022-09-05T03:18:20.847Z,16.89
2022-09-05T03:21:12.301Z,16.89
2022-09-05T03:24:10.133Z,16.95
2022-09-05T03:27:01.374Z,16.92
2022-09-05T03:30:05.221Z,16.95
2022-09-05T03:33:02.084Z,17.12
2022-09-05T03:35:50.379Z,17.08
2022-09-05T03:39:11.404Z,16.95
2022-09-05T03:42:05.631Z,17.01
2022-09-05T03:44:48.637Z,16.89
2022-09-05T03:47:51.619Z,16.87
2022-09-05T03:54:36.166Z,16.97
2022-09-05T03:57:14.718Z,16.93
2022-09-05T03:57:24.064Z,16.92
2022-09-05T04:00:09.481Z,16.92
2022-09-05T04:06:44.164Z,16.93
2022-09-05T04:08:16.873Z,17.01
2022-09-05T04:09:08.999Z,16.97
2022-09-05T04:11:45.386Z,16.86
2022-09-05T04:14:24.218Z,16.85
2022-09-05T04:16:58.134Z,16.91
2022-09-05T04:19:32.928Z,17.11
2022-09-05T04:22:22.846Z,16.89
2022-09-05T04:25:02.841Z,16.89
2022-09-05T04:27:46.451Z,16.90
2022-09-05T04:30:39.389Z,16.96
2022-09-05T04:33:22.179Z,16.87
2022-09-05T04:36:25.831Z,16.87
2022-09-05T04:39:17.213Z,16.89
2022-09-05T04:41:51.672Z,16.91
2022-09-05T04:44:37.505Z,16.99
2022-09-05T04:47:13.105Z,16.98
2022-09-05T04:49:55.462Z,17.00
2022-09-05T04:52:48.907Z,16.96
2022-09-05T04:55:21.567Z,17.13
2022-09-05T04:58:10.881Z,17.02
2022-09-05T05:06:01.443Z,17.06
2022-09-05T05:06:12.234Z,17.02
2022-09-05T05:06:46.096Z,17.08
2022-09-05T05:09:29.352Z,16.93
2022-09-05T05:18:03.805Z,17.01
2022-09-05T05:18:08.956Z,17.09
2022-09-05T05:18:59.547Z,17.03
2022-09-05T05:21:31.398Z,17.05
2022-09-05T05:24:22.960Z,17.02
2022-09-05T05:26:58.517Z,17.02
2022-09-05T05:29:38.214Z,17.16
2022-09-05T05:32:06.926Z,17.18
2022-09-05T05:34:43.077Z,17.18
2022-09-05T05:37:32.062Z,17.19
2022-09-05T05:40:09.745Z,17.30
2022-09-05T05:42:41.514Z,17.34
2022-09-05T05:45:25.741Z,17.45
2022-09-05T05:47:59.462Z,17.44
2022-09-05T05:50:51.810Z,17.50
2022-09-05T05:53:41.054Z,17.62
2022-09-05T05:56:18.521Z,17.59
2022-09-05T05:59:03.397Z,17.70
2022-09-05T06:01:48.021Z,17.63
2022-09-05T06:04:52.463Z,17.64
2022-09-05T06:11:07.399Z,17.78
2022-09-05T06:14:56.181Z,17.83
2022-09-05T06:15:04.946Z,17.84
2022-09-05T06:17:27.942Z,17.70
2022-09-05T06:22:06.614Z,17.90
2022-09-05T06:24:11.890Z,18.09
2022-09-05T06:27:07.481Z,18.17
2022-09-05T06:29:57.043Z,18.35
2022-09-05T06:32:41.763Z,18.36
2022-09-05T06:35:34.157Z,18.52
2022-09-05T06:38:09.530Z,18.53
2022-09-05T06:41:07.726Z,18.68
2022-09-05T06:43:55.494Z,18.81
2022-09-05T06:46:55.014Z,18.84
2022-09-05T06:49:41.787Z,18.88
2022-09-05T06:52:41.840Z,18.90
2022-09-05T06:55:34.419Z,18.95
2022-09-05T06:58:22.785Z,19.09
2022-09-05T07:00:51.571Z,19.12
2022-09-05T07:03:52.289Z,19.29
2022-09-05T07:06:46.666Z,19.38
2022-09-05T07:09:52.837Z,19.45
2022-09-05T07:12:30.022Z,19.42
2022-09-05T07:15:22.758Z,19.34
2022-09-05T07:18:11.329Z,19.38
2022-09-05T07:21:15.856Z,19.53
2022-09-05T07:24:10.001Z,19.55
2022-09-05T07:26:54.245Z,19.53
2022-09-05T07:29:34.391Z,19.68
2022-09-05T07:32:03.134Z,19.78
2022-09-05T07:34:32.170Z,19.82
2022-09-05T07:37:14.265Z,19.96
2022-09-05T07:39:55.257Z,19.97
2022-09-05T07:42:30.241Z,19.99
2022-09-05T07:45:08.512Z,19.95
2022-09-05T07:47:40.380Z,20.01
2022-09-05T07:54:30.050Z,20.00
2022-09-05T07:56:56.945Z,20.09
2022-09-05T07:57:01.149Z,19.97
2022-09-05T07:58:52.686Z,19.93
2022-09-05T08:01:22.764Z,19.96
2022-09-05T08:03:57.037Z,19.98
2022-09-05T08:07:46.437Z,20.12
2022-09-05T08:10:05.181Z,20.17
2022-09-05T08:12:31.124Z,20.26
2022-09-05T08:15:24.566Z,20.44
2022-09-05T08:18:12.056Z,20.53
2022-09-05T08:20:59.567Z,20.60
2022-09-05T08:24:09.148Z,20.70
2022-09-05T08:27:16.584Z,20.83
2022-09-05T08:30:25.719Z,21.03
2022-09-05T08:32:49.729Z,21.23
2022-09-05T08:35:29.496Z,21.37
2022-09-05T08:37:57.393Z,21.52
2022-09-05T08:40:35.966Z,21.68
2022-09-05T08:46:35.714Z,21.58
2022-09-05T08:46:40.604Z,21.64
2022-09-05T08:49:38.715Z,21.89
2022-09-05T08:52:28.150Z,22.16
2022-09-05T08:55:23.548Z,22.23
2022-09-05T08:57:56.039Z,22.37
2022-09-05T09:00:24.197Z,22.44
2022-09-05T09:03:04.899Z,22.57
2022-09-05T09:06:14.089Z,22.47
2022-09-05T09:09:03.316Z,22.35
2022-09-05T09:11:36.762Z,22.39
2022-09-05T09:14:30.905Z,22.44
2022-09-05T09:17:20.745Z,22.46
2022-09-05T09:20:07.464Z,22.63
2022-09-05T09:22:52.311Z,22.68
2022-09-05T09:25:27.911Z,22.75
2022-09-05T09:28:49.556Z,22.85
2022-09-05T09:31:45.648Z,23.04
2022-09-05T09:34:29.395Z,23.26
2022-09-05T09:37:05.197Z,23.27
2022-09-05T09:39:39.814Z,23.29
2022-09-05T09:42:45.461Z,23.28
2022-09-05T09:45:22.959Z,23.58
2022-09-05T09:48:10.742Z,23.99
2022-09-05T09:51:08.572Z,24.33
2022-09-05T09:54:03.083Z,24.32
2022-09-05T09:56:48.079Z,24.33
2022-09-05T09:59:54.052Z,24.31
2022-09-05T10:04:36.703Z,24.45
2022-09-05T10:10:45.542Z,24.83
2022-09-05T10:10:49.405Z,24.67
2022-09-05T10:12:39.161Z,24.60
2022-09-05T10:15:31.311Z,24.66
2022-09-05T10:18:32.544Z,24.75
2022-09-05T10:21:16.019Z,24.59
2022-09-05T10:24:21.661Z,24.76
2022-09-05T10:27:10.715Z,24.98
2022-09-05T10:29:46.405Z,25.12
2022-09-05T10:35:11.522Z,25.15
2022-09-05T10:35:25.752Z,25.47
2022-09-05T10:38:07.752Z,25.57
2022-09-05T10:41:08.113Z,25.65
2022-09-05T10:43:31.014Z,25.70
2022-09-05T10:45:57.526Z,25.82
2022-09-05T10:48:52.886Z,25.94
2022-09-05T10:51:32.360Z,26.06
2022-09-05T10:54:29.179Z,26.22
2022-09-05T10:57:11.587Z,26.43
2022-09-05T11:01:45.372Z,26.44
2022-09-05T11:02:57.968Z,26.47
2022-09-05T11:05:36.119Z,26.54
2022-09-05T11:08:26.769Z,26.73
2022-09-05T11:11:34.763Z,26.76
2022-09-05T11:14:26.560Z,26.83
2022-09-05T11:17:02.188Z,26.85
2022-09-05T11:20:08.028Z,27.01
2022-09-05T11:22:49.090Z,27.07
2022-09-05T11:25:39.928Z,27.22
2022-09-05T11:28:18.786Z,27.13
2022-09-05T11:30:53.285Z,27.31
2022-09-05T11:39:59.806Z,27.42
2022-09-05T11:40:07.455Z,27.63
2022-09-05T11:40:31.417Z,27.80
2022-09-05T11:43:08.233Z,27.79
2022-09-05T11:45:58.759Z,28.02
2022-09-05T11:48:59.698Z,27.95
2022-09-05T11:52:03.572Z,28.12
2022-09-05T11:54:55.739Z,28.20
2022-09-05T11:57:45.854Z,28.32
2022-09-05T12:00:33.125Z,28.25
2022-09-05T12:03:58.261Z,28.44
2022-09-05T12:07:26.391Z,28.44
2022-09-05T12:10:03.213Z,28.36
2022-09-05T12:12:54.085Z,28.57
2022-09-05T12:15:26.068Z,28.42
2022-09-05T12:18:21.685Z,28.50
2022-09-05T12:21:10.343Z,28.37
2022-09-05T12:24:49.802Z,28.72
2022-09-05T12:27:42.196Z,28.86
2022-09-05T12:30:04.480Z,28.89
2022-09-05T12:35:50.065Z,28.59
2022-09-05T12:41:32.015Z,28.74
2022-09-05T12:41:42.270Z,28.74
2022-09-05T12:41:43.000Z,28.77
2022-09-05T12:44:45.056Z,28.85
2022-09-05T12:47:19.404Z,29.03
2022-09-05T12:50:02.671Z,29.08
2022-09-05T12:52:31.498Z,29.08
2022-09-05T12:55:05.057Z,29.00
2022-09-05T13:03:05.943Z,28.95
2022-09-05T13:03:09.852Z,28.92
2022-09-05T13:03:30.024Z,28.77
2022-09-05T13:06:24.911Z,29.03
2022-09-05T13:08:59.357Z,28.63
2022-09-05T13:14:56.208Z,28.87
2022-09-05T13:15:02.695Z,28.61
2022-09-05T13:17:14.133Z,28.91
2022-09-05T13:19:51.275Z,28.96
2022-09-05T13:22:22.559Z,29.14
2022-09-05T13:25:16.625Z,29.19
2022-09-05T13:27:56.756Z,29.22
2022-09-05T13:33:28.404Z,29.35
2022-09-05T13:38:01.200Z,29.28
2022-09-05T13:38:14.031Z,29.53
2022-09-05T13:39:06.876Z,29.27
2022-09-05T13:41:41.931Z,29.13
2022-09-05T13:44:27.677Z,28.71
2022-09-05T13:47:30.649Z,29.03
2022-09-05T13:50:33.826Z,29.06
2022-09-05T13:53:15.562Z,28.98
2022-09-05T13:56:03.348Z,28.92
2022-09-05T13:58:39.876Z,28.89
2022-09-05T14:01:37.463Z,29.04
2022-09-05T14:07:55.797Z,29.02
2022-09-05T14:10:28.614Z,29.27
2022-09-05T14:13:07.548Z,29.39
2022-09-05T14:15:54.360Z,29.35
2022-09-05T14:18:30.006Z,29.40
2022-09-05T14:21:17.772Z,29.28
2022-09-05T14:23:56.793Z,29.19
2022-09-05T14:26:29.976Z,29.17
2022-09-05T14:29:26.216Z,29.31
2022-09-05T14:37:34.374Z,29.22
2022-09-05T14:38:00.570Z,29.39
2022-09-05T14:38:28.823Z,29.58
2022-09-05T14:41:29.128Z,29.33
2022-09-05T14:44:23.266Z,28.86
2022-09-05T14:47:35.340Z,28.59
2022-09-05T14:50:13.619Z,28.39
2022-09-05T14:57:23.546Z,29.02
2022-09-05T15:02:39.766Z,29.32
2022-09-05T15:02:53.586Z,29.19
2022-09-05T15:05:15.893Z,28.96
2022-09-05T15:07:47.912Z,28.85
2022-09-05T15:12:21.379Z,28.93
2022-09-05T15:13:16.815Z,29.09
2022-09-05T15:16:02.260Z,29.14
2022-09-05T15:18:34.049Z,28.97
2022-09-05T15:21:35.382Z,28.71
2022-09-05T15:24:04.267Z,28.48
2022-09-05T15:26:47.249Z,28.23
2022-09-05T15:29:14.773Z,28.03
2022-09-05T15:31:41.910Z,27.98
2022-09-05T15:34:26.490Z,28.12
2022-09-05T15:36:55.145Z,28.24
2022-09-05T15:39:35.698Z,28.35
2022-09-05T15:42:21.484Z,28.49
2022-09-05T15:45:08.572Z,28.56
2022-09-05T15:47:38.770Z,28.49
2022-09-05T15:50:21.842Z,28.51
2022-09-05T15:52:55.229Z,28.27
2022-09-05T15:55:26.747Z,28.13
2022-09-05T15:58:05.819Z,28.06
2022-09-05T16:00:46.174Z,28.05
2022-09-05T16:04:27.109Z,27.86
2022-09-05T16:10:28.383Z,27.81
2022-09-05T16:10:41.440Z,27.79
2022-09-05T16:12:16.666Z,27.84
2022-09-05T16:15:19.849Z,27.73
2022-09-05T16:23:14.715Z,27.61
2022-09-05T16:23:34.265Z,27.53
2022-09-05T16:23:41.555Z,27.54
2022-09-05T16:26:30.377Z,27.56
2022-09-05T16:29:04.001Z,27.62
2022-09-05T16:31:40.500Z,27.49
2022-09-05T16:34:16.158Z,27.46
2022-09-05T16:37:07.851Z,27.31
2022-09-05T16:39:45.262Z,27.18
2022-09-05T16:42:46.815Z,27.21
2022-09-05T16:45:22.939Z,27.07
2022-09-05T16:48:23.390Z,27.04
2022-09-05T16:51:13.342Z,26.96
2022-09-05T16:54:10.296Z,26.99
2022-09-05T16:56:47.093Z,26.92
2022-09-05T16:59:19.672Z,26.77
2022-09-05T17:02:07.504Z,26.55
2022-09-05T17:05:11.026Z,26.61
2022-09-05T17:08:02.807Z,26.55
2022-09-05T17:10:40.834Z,26.40
2022-09-05T17:13:11.576Z,26.35
2022-09-05T17:15:51.533Z,26.24
2022-09-05T17:18:24.504Z,26.25
2022-09-05T17:20:59.001Z,26.17
2022-09-05T17:29:15.125Z,25.97
2022-09-05T17:29:33.612Z,25.86
2022-09-05T17:32:51.948Z,25.70
2022-09-05T17:35:46.641Z,25.64
2022-09-05T17:38:36.298Z,25.66
2022-09-05T17:41:14.843Z,25.51
2022-09-05T17:43:42.378Z,25.41
2022-09-05T17:46:20.429Z,25.33
2022-09-05T17:48:49.231Z,25.27
2022-09-05T17:51:34.361Z,25.16
2022-09-05T17:54:03.053Z,25.08
2022-09-05T17:56:35.918Z,24.95
2022-09-05T17:59:28.352Z,24.90
2022-09-05T18:02:06.836Z,24.85
2022-09-05T18:04:50.067Z,24.86
2022-09-05T18:07:19.217Z,24.75
2022-09-05T18:10:14.885Z,24.62
2022-09-05T18:15:34.259Z,24.67
2022-09-05T18:18:05.280Z,24.54
2022-09-05T18:21:21.365Z,24.53
2022-09-05T18:23:54.789Z,24.37
2022-09-05T18:26:24.482Z,24.37
2022-09-05T18:29:14.699Z,24.26
2022-09-05T18:31:43.478Z,24.21
2022-09-05T18:34:14.313Z,24.12
2022-09-05T18:36:43.737Z,24.04
2022-09-05T18:39:29.408Z,23.98
2022-09-05T18:42:33.614Z,23.83
2022-09-05T18:45:15.091Z,23.84
2022-09-05T18:48:03.573Z,23.76
2022-09-05T18:50:37.616Z,23.80
2022-09-05T18:53:13.287Z,23.78
2022-09-05T18:56:13.551Z,23.67
2022-09-05T18:59:10.014Z,23.61
2022-09-05T19:01:51.016Z,23.59
2022-09-05T19:04:40.377Z,23.58
2022-09-05T19:07:17.097Z,23.63
2022-09-05T19:10:34.820Z,23.55
2022-09-05T19:13:08.810Z,23.48
2022-09-05T19:15:52.867Z,23.40
2022-09-05T19:19:10.004Z,23.24
2022-09-05T19:21:40.452Z,23.30
2022-09-05T19:24:11.323Z,23.16
2022-09-05T19:26:38.530Z,23.11
2022-09-05T19:35:29.387Z,23.23
2022-09-05T19:36:54.137Z,23.09
2022-09-05T19:36:54.642Z,23.15
2022-09-05T19:37:48.464Z,22.98
2022-09-05T19:46:15.431Z,23.04
2022-09-05T19:47:29.585Z,23.00
2022-09-05T19:47:36.584Z,22.91
2022-09-05T19:49:11.222Z,22.81
2022-09-05T19:51:40.949Z,22.76
2022-09-05T19:54:08.704Z,22.72
2022-09-05T19:56:45.896Z,22.72
2022-09-05T19:59:22.670Z,22.69
2022-09-05T20:01:51.853Z,22.69
2022-09-05T20:04:20.554Z,22.57
2022-09-05T20:06:49.459Z,22.51
2022-09-05T20:09:19.126Z,22.45
2022-09-05T20:12:00.645Z,22.44
2022-09-05T20:14:36.646Z,22.34
2022-09-05T20:17:26.889Z,22.26
2022-09-05T20:20:15.969Z,22.24
2022-09-05T20:22:50.671Z,22.28
2022-09-05T20:25:36.786Z,22.33
2022-09-05T20:28:10.986Z,22.25
2022-09-05T20:30:42.917Z,22.25
2022-09-05T20:33:25.060Z,22.38
2022-09-05T20:38:28.323Z,22.33
2022-09-05T20:43:18.672Z,22.13
2022-09-05T20:43:19.663Z,22.18
2022-09-05T20:44:48.290Z,22.00
2022-09-05T20:53:53.503Z,21.97
2022-09-05T20:54:14.212Z,21.87
2022-09-05T20:54:24.766Z,21.80
2022-09-05T20:56:22.451Z,21.87
2022-09-05T20:58:50.421Z,21.81
2022-09-05T21:01:24.527Z,21.74
2022-09-05T21:04:02.679Z,21.84
2022-09-05T21:06:34.706Z,21.65
2022-09-05T21:09:14.289Z,21.60
2022-09-05T21:11:42.610Z,21.62
2022-09-05T21:14:10.600Z,21.69
2022-09-05T21:16:47.610Z,21.69
2022-09-05T21:19:27.893Z,21.50
2022-09-05T21:22:04.867Z,21.47
2022-09-05T21:24:31.566Z,21.43
2022-09-05T21:27:22.425Z,21.36
2022-09-05T21:29:58.714Z,21.34
2022-09-05T21:32:36.273Z,21.28
2022-09-05T21:35:33.916Z,21.27
2022-09-05T21:37:53.755Z,21.24
2022-09-05T21:40:21.315Z,21.26
2022-09-05T21:47:39.709Z,21.18
2022-09-05T21:47:43.758Z,21.12
2022-09-05T21:48:23.817Z,21.19
2022-09-05T21:50:59.662Z,21.08
2022-09-05T21:57:00.418Z,21.03
2022-09-05T21:59:18.403Z,20.99
2022-09-05T21:59:38.841Z,21.01
2022-09-05T22:02:13.451Z,20.99
2022-09-05T22:04:40.989Z,20.99
2022-09-05T22:07:08.950Z,20.92
2022-09-05T22:09:35.377Z,20.88
2022-09-05T22:12:07.337Z,20.90
2022-09-05T22:14:48.450Z,20.81
2022-09-05T22:17:14.913Z,20.90
2022-09-05T22:19:41.355Z,20.95
2022-09-05T22:22:17.575Z,20.96
2022-09-05T22:24:50.261Z,20.94
2022-09-05T22:27:19.817Z,20.78
2022-09-05T22:29:48.951Z,20.76
2022-09-05T22:32:25.864Z,20.74
2022-09-05T22:35:26.895Z,20.69
2022-09-05T22:37:49.400Z,20.72
2022-09-05T22:40:26.418Z,20.62
2022-09-05T22:43:02.217Z,20.55
2022-09-05T22:45:30.357Z,20.61
2022-09-05T22:47:57.917Z,20.70
2022-09-05T22:50:25.098Z,20.73
2022-09-05T22:52:52.461Z,20.74
2022-09-05T22:55:19.022Z,20.58
2022-09-05T22:57:45.443Z,20.45
2022-09-05T23:00:12.547Z,20.47
2022-09-05T23:02:38.969Z,20.46
2022-09-05T23:05:06.890Z,20.46
2022-09-05T23:07:33.378Z,20.58
2022-09-05T23:10:00.143Z,20.50
2022-09-05T23:12:27.131Z,20.48
2022-09-05T23:14:54.037Z,20.45
2022-09-05T23:17:20.608Z,20.41
2022-09-05T23:19:47.146Z,20.48
2022-09-05T23:22:13.603Z,20.40
2022-09-05T23:24:40.200Z,20.42
2022-09-05T23:27:06.649Z,20.35
2022-09-05T23:29:33.227Z,20.41
2022-09-05T23:32:03.004Z,20.36
2022-09-05T23:34:32.974Z,20.36
2022-09-05T23:37:00.127Z,20.39
2022-09-05T23:39:26.860Z,20.34
2022-09-05T23:41:53.710Z,20.38
2022-09-05T23:44:20.303Z,20.28
2022-09-05T23:46:46.705Z,20.34
2022-09-05T23:49:13.249Z,20.17
2022-09-05T23:51:39.719Z,20.27
2022-09-05T23:54:06.209Z,20.18
2022-09-05T23:56:32.722Z,20.28
2022-09-05T23:58:59.990Z,20.14
